createdAt,value
2022-08-18T00:01:06.421Z,23.18
2022-08-18T00:03:53.499Z,23.32
2022-08-18T00:06:21.768Z,23.39
2022-08-18T00:08:48.984Z,23.39
2022-08-18T00:11:20.490Z,23.41
2022-08-18T00:13:47.702Z,23.47
2022-08-18T00:16:15.001Z,23.48
2022-08-18T00:18:42.276Z,23.45
2022-08-18T00:21:09.828Z,23.46
2022-08-18T00:23:38.742Z,23.36
2022-08-18T00:26:06.204Z,23.12
2022-08-18T00:28:33.461Z,23.00
2022-08-18T00:31:01.412Z,22.85
2022-08-18T00:33:28.671Z,22.74
2022-08-18T00:35:56.642Z,22.73
2022-08-18T00:38:24.771Z,22.83
2022-08-18T00:40:54.090Z,22.95
2022-08-18T00:43:42.292Z,23.00
2022-08-18T00:46:11.763Z,23.12
2022-08-18T00:48:39.006Z,23.12
2022-08-18T00:51:26.664Z,23.05
2022-08-18T00:53:58.531Z,23.07
2022-08-18T00:56:28.346Z,22.95
2022-08-18T00:58:59.648Z,22.90
2022-08-18T01:01:32.149Z,22.97
2022-08-18T01:04:02.082Z,23.02
2022-08-18T01:06:41.763Z,22.95
2022-08-18T01:09:09.358Z,22.99
2022-08-18T01:11:38.246Z,22.87
2022-08-18T01:14:07.282Z,22.96
2022-08-18T01:16:56.834Z,22.90
2022-08-18T01:19:44.340Z,22.80
2022-08-18T01:22:19.453Z,22.52
2022-08-18T01:25:05.412Z,22.56
2022-08-18T01:27:34.156Z,22.71
2022-08-18T01:30:10.001Z,22.42
2022-08-18T01:32:38.114Z,22.35
2022-08-18T01:35:08.859Z,22.38
2022-08-18T01:37:36.382Z,22.50
2022-08-18T01:41:21.349Z,22.60
2022-08-18T01:42:56.914Z,22.64
2022-08-18T01:45:24.194Z,22.69
2022-08-18T01:47:51.484Z,22.71
2022-08-18T01:50:18.604Z,22.62
2022-08-18T01:52:45.963Z,22.69
2022-08-18T01:55:14.664Z,22.43
2022-08-18T01:57:48.982Z,22.37
2022-08-18T02:00:17.964Z,22.50
2022-08-18T02:02:47.106Z,22.43
2022-08-18T02:05:38.397Z,22.40
2022-08-18T02:08:06.717Z,22.44
2022-08-18T02:10:34.469Z,22.56
2022-08-18T02:13:02.472Z,22.57
2022-08-18T02:15:29.810Z,22.48
2022-08-18T02:17:57.241Z,22.40
2022-08-18T02:20:24.447Z,22.30
2022-08-18T02:22:51.953Z,22.27
2022-08-18T02:25:19.249Z,22.22
2022-08-18T02:27:46.569Z,22.18
2022-08-18T02:30:15.335Z,22.14
2022-08-18T02:32:42.813Z,22.09
2022-08-18T02:35:11.762Z,22.12
2022-08-18T02:37:42.366Z,22.09
2022-08-18T02:40:15.171Z,22.10
2022-08-18T02:42:43.627Z,22.11
2022-08-18T02:45:11.334Z,22.27
2022-08-18T02:47:39.791Z,22.21
2022-08-18T02:50:07.303Z,22.22
2022-08-18T02:52:40.421Z,21.98
2022-08-18T02:55:08.309Z,21.53
2022-08-18T02:57:36.005Z,21.17
2022-08-18T03:00:04.218Z,21.02
2022-08-18T03:02:32.430Z,20.78
2022-08-18T03:04:59.775Z,20.59
2022-08-18T03:07:27.066Z,20.60
2022-08-18T03:09:54.390Z,20.65
2022-08-18T03:12:21.618Z,20.64
2022-08-18T03:14:49.486Z,20.55
2022-08-18T03:17:16.726Z,20.36
2022-08-18T03:19:47.885Z,20.10
2022-08-18T03:22:28.521Z,19.94
2022-08-18T03:24:57.024Z,19.90
2022-08-18T03:27:24.428Z,19.86
2022-08-18T03:29:51.687Z,19.86
2022-08-18T03:32:19.150Z,19.86
2022-08-18T03:34:46.587Z,19.99
2022-08-18T03:37:16.195Z,20.05
2022-08-18T03:39:43.554Z,20.07
2022-08-18T03:42:10.800Z,20.14
2022-08-18T03:44:38.196Z,20.21
2022-08-18T03:47:09.526Z,20.27
2022-08-18T03:49:37.326Z,20.28
2022-08-18T03:52:07.538Z,20.31
2022-08-18T03:54:35.495Z,20.31
2022-08-18T03:57:02.716Z,20.35
2022-08-18T03:59:31.936Z,20.48
2022-08-18T04:02:02.135Z,20.49
2022-08-18T04:04:29.542Z,20.63
2022-08-18T04:06:58.561Z,20.65
2022-08-18T04:09:27.723Z,20.72
2022-08-18T04:11:55.490Z,20.73
2022-08-18T04:14:31.009Z,20.68
2022-08-18T04:16:58.421Z,20.74
2022-08-18T04:19:27.286Z,20.65
2022-08-18T04:21:56.643Z,20.61
2022-08-18T04:24:26.077Z,20.64
2022-08-18T04:26:53.784Z,20.58
2022-08-18T04:29:21.688Z,20.67
2022-08-18T04:31:50.424Z,20.65
2022-08-18T04:34:20.408Z,20.53
2022-08-18T04:36:48.112Z,20.56
2022-08-18T04:39:15.704Z,20.49
2022-08-18T04:41:43.881Z,20.41
2022-08-18T04:44:11.751Z,20.29
2022-08-18T04:46:41.202Z,20.38
2022-08-18T04:49:09.383Z,20.42
2022-08-18T04:52:26.721Z,20.36
2022-08-18T04:54:25.354Z,20.35
2022-08-18T04:56:52.985Z,20.47
2022-08-18T04:59:20.477Z,20.49
2022-08-18T05:01:48.154Z,20.52
2022-08-18T05:04:16.553Z,20.52
2022-08-18T05:06:44.685Z,20.64
2022-08-18T05:09:12.911Z,20.59
2022-08-18T05:11:44.683Z,20.56
2022-08-18T05:14:12.333Z,20.72
2022-08-18T05:16:48.205Z,20.75
2022-08-18T05:19:23.082Z,20.78
2022-08-18T05:21:54.050Z,20.77
2022-08-18T05:24:33.515Z,20.79
2022-08-18T05:27:04.907Z,20.86
2022-08-18T05:29:38.042Z,20.89
2022-08-18T05:32:38.292Z,20.93
2022-08-18T05:35:14.228Z,20.90
2022-08-18T05:37:50.675Z,20.93
2022-08-18T05:40:20.885Z,20.95
2022-08-18T05:42:48.802Z,21.05
2022-08-18T05:45:17.851Z,21.12
2022-08-18T05:47:45.429Z,21.22
2022-08-18T05:50:14.104Z,21.18
2022-08-18T05:52:44.298Z,21.17
2022-08-18T05:55:36.356Z,21.16
2022-08-18T05:58:13.690Z,21.33
2022-08-18T06:00:43.750Z,21.42
2022-08-18T06:03:16.368Z,21.26
2022-08-18T06:05:53.619Z,21.07
2022-08-18T06:08:23.021Z,21.25
2022-08-18T06:10:50.882Z,21.22
2022-08-18T06:13:20.163Z,21.22
2022-08-18T06:15:50.622Z,21.33
2022-08-18T06:18:30.158Z,21.46
2022-08-18T06:21:00.188Z,21.57
2022-08-18T06:23:35.642Z,21.54
2022-08-18T06:26:10.510Z,21.64
2022-08-18T06:28:57.940Z,21.61
2022-08-18T06:31:33.505Z,21.58
2022-08-18T06:34:00.742Z,21.61
2022-08-18T06:36:27.909Z,21.82
2022-08-18T06:39:04.864Z,21.93
2022-08-18T06:41:43.466Z,22.08
2022-08-18T06:44:16.398Z,22.23
2022-08-18T06:46:46.431Z,22.21
2022-08-18T06:49:32.543Z,22.21
2022-08-18T06:51:59.769Z,22.04
2022-08-18T06:54:28.399Z,21.82
2022-08-18T06:56:56.672Z,21.73
2022-08-18T06:59:26.800Z,21.63
2022-08-18T07:01:56.401Z,21.70
2022-08-18T07:04:36.815Z,21.69
2022-08-18T07:07:39.176Z,21.51
2022-08-18T07:10:29.253Z,21.33
2022-08-18T07:13:08.439Z,21.32
2022-08-18T07:15:36.435Z,21.22
2022-08-18T07:18:06.451Z,21.05
2022-08-18T07:20:47.967Z,21.01
2022-08-18T07:23:24.473Z,20.87
2022-08-18T07:26:15.789Z,20.72
2022-08-18T07:28:44.374Z,20.64
2022-08-18T07:31:17.191Z,20.58
2022-08-18T07:33:51.721Z,20.62
2022-08-18T07:36:21.597Z,20.70
2022-08-18T07:38:51.831Z,20.73
2022-08-18T07:41:22.874Z,20.61
2022-08-18T07:43:53.685Z,20.68
2022-08-18T07:46:29.638Z,20.80
2022-08-18T07:48:59.413Z,20.91
2022-08-18T07:51:37.566Z,20.85
2022-08-18T07:54:47.186Z,20.92
2022-08-18T07:57:19.217Z,20.94
2022-08-18T07:59:53.448Z,20.87
2022-08-18T08:02:36.449Z,20.79
2022-08-18T08:05:11.200Z,20.88
2022-08-18T08:07:47.820Z,20.76
2022-08-18T08:10:39.404Z,20.65
2022-08-18T08:13:09.546Z,20.58
2022-08-18T08:15:53.861Z,20.72
2022-08-18T08:18:39.863Z,20.83
2022-08-18T08:21:11.772Z,20.78
2022-08-18T08:23:45.440Z,20.73
2022-08-18T08:26:18.730Z,20.75
2022-08-18T08:28:57.275Z,20.88
2022-08-18T08:31:43.063Z,20.89
2022-08-18T08:34:36.719Z,20.76
2022-08-18T08:37:06.454Z,20.89
2022-08-18T08:39:40.828Z,20.99
2022-08-18T08:42:30.263Z,20.90
2022-08-18T08:45:04.083Z,20.98
2022-08-18T08:47:45.932Z,21.18
2022-08-18T08:50:14.787Z,21.38
2022-08-18T08:52:46.862Z,21.54
2022-08-18T08:55:14.624Z,21.63
2022-08-18T08:58:02.131Z,21.75
2022-08-18T09:00:30.204Z,21.81
2022-08-18T09:03:03.415Z,21.93
2022-08-18T09:05:41.530Z,22.00
2022-08-18T09:08:35.004Z,21.94
2022-08-18T09:11:34.719Z,21.97
2022-08-18T09:14:04.832Z,21.93
2022-08-18T09:16:35.041Z,22.03
2022-08-18T09:19:02.365Z,22.06
2022-08-18T09:21:41.023Z,22.09
2022-08-18T09:24:20.949Z,22.19
2022-08-18T09:26:53.856Z,22.18
2022-08-18T09:29:46.966Z,22.22
2022-08-18T09:32:20.197Z,22.27
2022-08-18T09:35:15.046Z,22.29
2022-08-18T09:37:42.457Z,22.20
2022-08-18T09:40:59.295Z,22.17
2022-08-18T09:43:33.740Z,22.17
2022-08-18T09:46:05.826Z,21.99
2022-08-18T09:48:34.322Z,21.91
2022-08-18T09:51:23.537Z,21.87
2022-08-18T09:53:53.684Z,21.83
2022-08-18T09:56:53.622Z,21.76
2022-08-18T09:59:34.779Z,21.38
2022-08-18T10:05:20.018Z,20.48
2022-08-18T10:07:50.187Z,20.22
2022-08-18T10:10:59.934Z,20.13
2022-08-18T10:13:49.905Z,20.04
2022-08-18T10:16:51.267Z,20.01
2022-08-18T10:19:39.509Z,19.99
2022-08-18T10:22:10.074Z,20.07
2022-08-18T10:25:20.775Z,20.10
2022-08-18T10:28:01.803Z,20.06
2022-08-18T10:30:34.612Z,20.00
2022-08-18T10:33:19.522Z,19.81
2022-08-18T10:39:04.947Z,19.78
2022-08-18T10:41:52.489Z,19.86
2022-08-18T10:44:29.051Z,19.82
2022-08-18T10:46:58.016Z,19.85
2022-08-18T10:49:32.172Z,19.89
2022-08-18T10:52:03.054Z,19.91
2022-08-18T10:54:51.845Z,19.88
2022-08-18T10:57:40.781Z,19.89
2022-08-18T11:00:41.306Z,19.97
2022-08-18T11:03:52.137Z,20.05
2022-08-18T11:06:23.927Z,20.13
2022-08-18T11:09:03.019Z,20.16
2022-08-18T11:11:59.436Z,20.10
2022-08-18T11:14:50.080Z,20.02
2022-08-18T11:20:32.946Z,20.22
2022-08-18T11:23:15.650Z,20.28
2022-08-18T11:25:44.809Z,20.24
2022-08-18T11:28:20.816Z,20.25
2022-08-18T11:30:55.206Z,20.21
2022-08-18T11:33:24.699Z,20.21
2022-08-18T11:36:01.747Z,20.26
2022-08-18T11:38:34.751Z,20.43
2022-08-18T11:41:47.998Z,20.56
2022-08-18T11:44:46.243Z,20.75
2022-08-18T11:47:38.154Z,20.81
2022-08-18T11:50:12.973Z,20.87
2022-08-18T11:52:53.885Z,20.98
2022-08-18T11:55:29.531Z,21.03
2022-08-18T11:58:41.907Z,21.16
2022-08-18T12:01:09.553Z,21.21
2022-08-18T12:03:36.756Z,21.25
2022-08-18T12:06:27.075Z,21.26
2022-08-18T12:12:06.846Z,21.61
2022-08-18T12:14:52.083Z,21.79
2022-08-18T12:17:20.132Z,21.89
2022-08-18T12:19:49.331Z,22.10
2022-08-18T12:22:50.823Z,22.27
2022-08-18T12:28:17.212Z,22.57
2022-08-18T12:30:45.073Z,22.69
2022-08-18T12:33:13.858Z,22.63
2022-08-18T12:35:42.164Z,22.57
2022-08-18T12:38:13.799Z,22.46
2022-08-18T12:40:41.925Z,22.36
2022-08-18T12:43:09.287Z,22.43
2022-08-18T12:45:38.138Z,22.41
2022-08-18T12:48:24.948Z,22.29
2022-08-18T12:50:58.652Z,22.20
2022-08-18T12:53:29.693Z,22.08
2022-08-18T12:56:12.364Z,21.97
2022-08-18T12:58:40.553Z,22.00
2022-08-18T13:01:08.079Z,22.04
2022-08-18T13:03:37.144Z,22.05
2022-08-18T13:06:05.974Z,22.01
2022-08-18T13:08:33.536Z,21.97
2022-08-18T13:11:15.299Z,21.99
2022-08-18T13:13:52.757Z,21.88
2022-08-18T13:16:30.622Z,21.95
2022-08-18T13:19:07.501Z,21.98
2022-08-18T13:21:40.955Z,22.14
2022-08-18T13:24:09.706Z,22.31
2022-08-18T13:26:39.351Z,22.40
2022-08-18T13:29:10.169Z,22.51
2022-08-18T13:31:38.498Z,22.55
2022-08-18T13:34:11.857Z,22.61
2022-08-18T13:36:48.008Z,22.73
2022-08-18T13:39:16.921Z,22.87
2022-08-18T13:41:45.648Z,22.89
2022-08-18T13:44:18.570Z,23.02
2022-08-18T13:46:48.199Z,23.07
2022-08-18T13:49:18.422Z,23.14
2022-08-18T13:52:00.491Z,23.11
2022-08-18T13:54:35.365Z,23.07
2022-08-18T13:57:03.821Z,23.08
2022-08-18T13:59:34.504Z,23.09
2022-08-18T14:02:03.147Z,23.11
2022-08-18T14:04:30.415Z,23.13
2022-08-18T14:07:03.194Z,23.18
2022-08-18T14:09:38.065Z,23.23
2022-08-18T14:12:07.376Z,23.29
2022-08-18T14:14:49.368Z,23.32
2022-08-18T14:17:22.630Z,23.32
2022-08-18T14:20:10.721Z,23.40
2022-08-18T14:23:11.593Z,23.38
2022-08-18T14:25:57.431Z,23.46
2022-08-18T14:28:28.352Z,23.43
2022-08-18T14:30:56.453Z,23.48
2022-08-18T14:33:29.177Z,23.56
2022-08-18T14:36:06.582Z,23.51
2022-08-18T14:38:36.945Z,23.55
2022-08-18T14:41:09.762Z,23.58
2022-08-18T14:44:11.280Z,23.67
2022-08-18T14:46:30.174Z,23.63
2022-08-18T14:48:57.857Z,23.50
2022-08-18T14:51:27.278Z,23.49
2022-08-18T14:53:55.713Z,23.55
2022-08-18T14:56:24.432Z,23.51
2022-08-18T14:58:56.445Z,23.48
2022-08-18T15:01:24.654Z,23.47
2022-08-18T15:03:54.512Z,23.47
2022-08-18T15:06:23.063Z,23.48
2022-08-18T15:08:54.862Z,23.45
2022-08-18T15:11:24.807Z,23.50
2022-08-18T15:13:54.959Z,23.62
2022-08-18T15:16:26.927Z,23.55
2022-08-18T15:19:01.930Z,23.59
2022-08-18T15:21:48.009Z,23.60
2022-08-18T15:24:37.695Z,23.49
2022-08-18T15:27:10.364Z,23.46
2022-08-18T15:29:46.894Z,23.49
2022-08-18T15:32:16.891Z,23.52
2022-08-18T15:34:46.823Z,23.50
2022-08-18T15:37:19.927Z,23.51
2022-08-18T15:39:58.592Z,23.54
2022-08-18T15:42:26.617Z,23.68
2022-08-18T15:44:54.723Z,23.68
2022-08-18T15:47:25.053Z,23.77
2022-08-18T15:49:54.715Z,23.83
2022-08-18T15:52:24.602Z,23.80
2022-08-18T15:54:55.791Z,23.82
2022-08-18T15:57:39.066Z,23.87
2022-08-18T16:00:08.281Z,23.94
2022-08-18T16:02:40.604Z,23.92
2022-08-18T16:05:14.050Z,23.91
2022-08-18T16:07:46.029Z,23.98
2022-08-18T16:10:14.417Z,24.05
2022-08-18T16:12:45.934Z,23.97
2022-08-18T16:15:21.090Z,23.93
2022-08-18T16:17:49.744Z,23.93
2022-08-18T16:20:18.801Z,24.03
2022-08-18T16:22:47.256Z,24.04
2022-08-18T16:25:16.449Z,23.99
2022-08-18T16:27:43.812Z,23.95
2022-08-18T16:30:13.044Z,23.98
2022-08-18T16:32:40.665Z,23.96
2022-08-18T16:35:08.481Z,24.02
2022-08-18T16:37:35.673Z,23.95
2022-08-18T16:40:03.952Z,23.96
2022-08-18T16:42:32.728Z,23.87
2022-08-18T16:45:00.268Z,23.90
2022-08-18T16:47:28.148Z,23.87
2022-08-18T16:49:58.585Z,23.84
2022-08-18T16:52:27.323Z,23.94
2022-08-18T16:54:57.389Z,23.95
2022-08-18T16:58:03.763Z,24.01
2022-08-18T17:00:54.579Z,24.04
2022-08-18T17:03:41.764Z,24.01
2022-08-18T17:06:10.889Z,23.96
2022-08-18T17:08:38.987Z,23.88
2022-08-18T17:11:14.172Z,23.87
2022-08-18T17:13:42.078Z,23.87
2022-08-18T17:16:09.874Z,23.83
2022-08-18T17:18:37.470Z,23.84
2022-08-18T17:21:05.608Z,23.85
2022-08-18T17:23:33.252Z,23.88
2022-08-18T17:26:02.573Z,23.91
2022-08-18T17:28:35.356Z,23.90
2022-08-18T17:31:02.736Z,23.83
2022-08-18T17:33:32.719Z,23.83
2022-08-18T17:36:03.212Z,23.74
2022-08-18T17:38:34.168Z,23.69
2022-08-18T17:41:02.104Z,23.75
2022-08-18T17:43:31.168Z,23.75
2022-08-18T17:46:01.232Z,23.77
2022-08-18T17:48:52.606Z,23.77
2022-08-18T17:51:35.300Z,23.81
2022-08-18T17:54:23.468Z,23.77
2022-08-18T17:57:01.386Z,23.76
2022-08-18T17:59:50.831Z,23.67
2022-08-18T18:02:30.279Z,23.73
2022-08-18T18:04:59.277Z,23.60
2022-08-18T18:07:52.924Z,23.61
2022-08-18T18:10:25.708Z,23.57
2022-08-18T18:13:11.876Z,23.54
2022-08-18T18:15:40.377Z,23.56
2022-08-18T18:18:32.085Z,23.49
2022-08-18T18:20:59.264Z,23.41
2022-08-18T18:23:30.203Z,23.46
2022-08-18T18:25:58.228Z,23.49
2022-08-18T18:28:33.320Z,23.48
2022-08-18T18:31:17.116Z,23.51
2022-08-18T18:33:45.157Z,23.54
2022-08-18T18:36:12.368Z,23.56
2022-08-18T18:38:48.985Z,23.54
2022-08-18T18:41:27.763Z,23.60
2022-08-18T18:44:06.044Z,23.50
2022-08-18T18:46:53.525Z,23.63
2022-08-18T18:49:53.327Z,23.45
2022-08-18T18:52:23.899Z,23.30
2022-08-18T18:55:05.870Z,23.22
2022-08-18T18:57:38.497Z,23.16
2022-08-18T19:00:18.263Z,23.17
2022-08-18T19:02:47.971Z,23.20
2022-08-18T19:05:15.103Z,23.11
2022-08-18T19:08:02.554Z,23.08
2022-08-18T19:10:29.910Z,23.13
2022-08-18T19:13:00.886Z,23.09
2022-08-18T19:15:28.772Z,23.11
2022-08-18T19:18:00.810Z,23.08
2022-08-18T19:20:30.389Z,22.94
2022-08-18T19:23:02.968Z,22.94
2022-08-18T19:25:38.123Z,23.01
2022-08-18T19:28:08.294Z,23.02
2022-08-18T19:30:38.460Z,22.96
2022-08-18T19:33:06.113Z,22.95
2022-08-18T19:35:47.011Z,23.04
2022-08-18T19:38:21.265Z,23.15
2022-08-18T19:40:51.989Z,23.23
2022-08-18T19:43:27.734Z,23.11
2022-08-18T19:45:58.140Z,23.10
2022-08-18T19:48:28.609Z,23.06
2022-08-18T19:51:15.673Z,23.05
2022-08-18T19:54:01.637Z,23.03
2022-08-18T19:56:32.773Z,22.98
2022-08-18T19:59:21.626Z,22.97
2022-08-18T20:01:58.140Z,22.91
2022-08-18T20:04:34.968Z,23.07
2022-08-18T20:07:20.709Z,23.00
2022-08-18T20:09:53.904Z,22.91
2022-08-18T20:12:39.871Z,22.82
2022-08-18T20:15:07.573Z,22.83
2022-08-18T20:17:54.782Z,22.76
2022-08-18T20:20:23.077Z,22.71
2022-08-18T20:22:55.160Z,22.64
2022-08-18T20:25:24.124Z,22.51
2022-08-18T20:28:00.563Z,22.46
2022-08-18T20:30:27.825Z,22.36
2022-08-18T20:33:14.048Z,22.39
2022-08-18T20:36:00.157Z,22.34
2022-08-18T20:38:35.073Z,22.49
2022-08-18T20:41:21.216Z,22.50
2022-08-18T20:43:50.303Z,22.53
2022-08-18T20:46:41.399Z,22.43
2022-08-18T20:49:16.064Z,22.32
2022-08-18T20:51:54.586Z,22.40
2022-08-18T20:54:57.416Z,22.58
2022-08-18T20:57:27.405Z,22.46
2022-08-18T21:00:02.804Z,22.34
2022-08-18T21:02:41.087Z,22.32
2022-08-18T21:05:10.603Z,22.37
2022-08-18T21:08:04.703Z,22.49
2022-08-18T21:10:33.063Z,22.43
2022-08-18T21:13:01.748Z,22.40
2022-08-18T21:15:37.149Z,22.31
2022-08-18T21:18:06.866Z,22.35
2022-08-18T21:20:35.311Z,22.23
2022-08-18T21:23:05.597Z,22.05
2022-08-18T21:25:33.045Z,22.13
2022-08-18T21:28:02.343Z,22.11
2022-08-18T21:30:30.583Z,22.09
2022-08-18T21:32:57.837Z,22.04
2022-08-18T21:35:30.352Z,21.95
2022-08-18T21:38:05.606Z,21.92
2022-08-18T21:40:59.264Z,21.95
2022-08-18T21:43:42.357Z,21.95
2022-08-18T21:46:27.314Z,21.93
2022-08-18T21:48:55.690Z,21.97
2022-08-18T21:51:27.448Z,22.02
2022-08-18T21:53:55.002Z,22.08
2022-08-18T21:56:28.143Z,22.20
2022-08-18T21:59:04.878Z,22.35
2022-08-18T22:01:33.853Z,22.35
2022-08-18T22:04:04.107Z,22.27
2022-08-18T22:06:34.046Z,22.30
2022-08-18T22:09:28.976Z,22.39
2022-08-18T22:12:33.526Z,22.55
2022-08-18T22:15:07.237Z,22.51
2022-08-18T22:17:37.755Z,22.33
2022-08-18T22:20:23.410Z,22.17
2022-08-18T22:23:09.468Z,22.08
2022-08-18T22:25:36.841Z,22.11
2022-08-18T22:28:04.042Z,22.00
2022-08-18T22:30:31.310Z,21.95
2022-08-18T22:32:59.596Z,21.95
2022-08-18T22:35:27.785Z,21.95
2022-08-18T22:37:55.117Z,21.91
2022-08-18T22:40:22.575Z,21.99
2022-08-18T22:42:49.968Z,22.11
2022-08-18T22:45:18.877Z,22.21
2022-08-18T22:47:46.237Z,22.18
2022-08-18T22:50:13.855Z,22.04
2022-08-18T22:53:06.176Z,21.90
2022-08-18T22:58:00.251Z,22.17
2022-08-18T23:00:27.788Z,22.31
2022-08-18T23:02:55.273Z,22.41
2022-08-18T23:05:23.264Z,22.43
2022-08-18T23:07:50.628Z,22.35
2022-08-18T23:10:17.865Z,22.32
2022-08-18T23:12:46.919Z,22.46
2022-08-18T23:15:15.628Z,22.52
2022-08-18T23:17:43.518Z,22.23
2022-08-18T23:20:17.803Z,22.07
2022-08-18T23:22:46.136Z,21.97
2022-08-18T23:25:13.542Z,21.96
2022-08-18T23:27:41.271Z,21.92
2022-08-18T23:30:09.274Z,21.84
2022-08-18T23:32:36.483Z,21.89
2022-08-18T23:35:03.877Z,21.90
2022-08-18T23:37:31.604Z,21.85
2022-08-18T23:39:59.165Z,21.87
2022-08-18T23:42:26.422Z,21.87
2022-08-18T23:44:53.724Z,21.86
2022-08-18T23:47:21.218Z,21.91
2022-08-18T23:49:48.453Z,21.80
2022-08-18T23:52:15.803Z,21.66
2022-08-18T23:54:43.084Z,21.75
2022-08-18T23:59:57.766Z,21.81
